sensor_id;sensor_type;location;lat;lon;timestamp;P1;durP1;ratioP1;P2;durP2;ratioP2
13872;SDS011;7006;51.494;11.964;2022-09-13T00:00:04;17.50;;;15.90;;
13872;SDS011;7006;51.494;11.964;2022-09-13T00:02:31;18.70;;;16.60;;
13872;SDS011;7006;51.494;11.964;2022-09-13T00:04:58;18.37;;;16.57;;
13872;SDS011;7006;51.494;11.964;2022-09-13T00:07:24;18.07;;;16.37;;
13872;SDS011;7006;51.494;11.964;2022-09-13T00:09:51;17.17;;;15.40;;
13872;SDS011;7006;51.494;11.964;2022-09-13T00:12:19;20.00;;;15.70;;
13872;SDS011;7006;51.494;11.964;2022-09-13T00:14:45;18.37;;;16.63;;
13872;SDS011;7006;51.494;11.964;2022-09-13T00:17:12;17.77;;;15.97;;
13872;SDS011;7006;51.494;11.964;2022-09-13T00:19:38;16.90;;;15.20;;
13872;SDS011;7006;51.494;11.964;2022-09-13T00:22:05;17.83;;;16.13;;
13872;SDS011;7006;51.494;11.964;2022-09-13T00:24:31;17.50;;;15.80;;
13872;SDS011;7006;51.494;11.964;2022-09-13T00:26:58;17.17;;;15.43;;
13872;SDS011;7006;51.494;11.964;2022-09-13T00:29:26;17.73;;;15.93;;
13872;SDS011;7006;51.494;11.964;2022-09-13T00:31:53;17.07;;;15.30;;
13872;SDS011;7006;51.494;11.964;2022-09-13T00:34:19;17.30;;;15.60;;
13872;SDS011;7006;51.494;11.964;2022-09-13T00:36:46;17.27;;;15.57;;
13872;SDS011;7006;51.494;11.964;2022-09-13T00:39:12;19.70;;;16.00;;
13872;SDS011;7006;51.494;11.964;2022-09-13T00:41:38;17.77;;;15.90;;
13872;SDS011;7006;51.494;11.964;2022-09-13T00:47:23;18.70;;;16.80;;
13872;SDS011;7006;51.494;11.964;2022-09-13T00:49:52;17.47;;;15.70;;
13872;SDS011;7006;51.494;11.964;2022-09-13T00:52:21;17.23;;;15.53;;
13872;SDS011;7006;51.494;11.964;2022-09-13T00:54:49;18.53;;;16.63;;
13872;SDS011;7006;51.494;11.964;2022-09-13T00:57:18;18.20;;;15.93;;
13872;SDS011;7006;51.494;11.964;2022-09-13T00:59:46;16.87;;;15.00;;
13872;SDS011;7006;51.494;11.964;2022-09-13T01:02:15;17.40;;;15.60;;
13872;SDS011;7006;51.494;11.964;2022-09-13T01:04:43;18.13;;;16.20;;
13872;SDS011;7006;51.494;11.964;2022-09-13T01:07:10;18.03;;;15.97;;
13872;SDS011;7006;51.494;11.964;2022-09-13T01:09:39;19.80;;;17.07;;
13872;SDS011;7006;51.494;11.964;2022-09-13T01:12:08;18.83;;;16.90;;
13872;SDS011;7006;51.494;11.964;2022-09-13T01:14:40;19.47;;;17.57;;
13872;SDS011;7006;51.494;11.964;2022-09-13T01:17:07;19.00;;;17.10;;
13872;SDS011;7006;51.494;11.964;2022-09-13T01:19:34;21.93;;;19.63;;
13872;SDS011;7006;51.494;11.964;2022-09-13T01:22:25;19.83;;;17.83;;
13872;SDS011;7006;51.494;11.964;2022-09-13T01:28:05;20.80;;;18.67;;
13872;SDS011;7006;51.494;11.964;2022-09-13T01:30:40;21.43;;;19.33;;
13872;SDS011;7006;51.494;11.964;2022-09-13T01:35:58;20.23;;;18.13;;
13872;SDS011;7006;51.494;11.964;2022-09-13T01:38:45;20.30;;;18.30;;
13872;SDS011;7006;51.494;11.964;2022-09-13T01:41:21;21.50;;;19.13;;
13872;SDS011;7006;51.494;11.964;2022-09-13T01:44:02;20.80;;;18.60;;
13872;SDS011;7006;51.494;11.964;2022-09-13T01:46:35;21.27;;;19.07;;
13872;SDS011;7006;51.494;11.964;2022-09-13T01:49:07;21.30;;;19.10;;
13872;SDS011;7006;51.494;11.964;2022-09-13T01:51:38;20.50;;;18.13;;
13872;SDS011;7006;51.494;11.964;2022-09-13T01:54:11;22.97;;;19.07;;
13872;SDS011;7006;51.494;11.964;2022-09-13T01:56:42;20.97;;;18.73;;
13872;SDS011;7006;51.494;11.964;2022-09-13T01:59:17;22.07;;;19.77;;
13872;SDS011;7006;51.494;11.964;2022-09-13T02:01:49;20.67;;;18.27;;
13872;SDS011;7006;51.494;11.964;2022-09-13T02:04:20;20.90;;;18.70;;
13872;SDS011;7006;51.494;11.964;2022-09-13T02:06:48;21.30;;;17.97;;
13872;SDS011;7006;51.494;11.964;2022-09-13T02:09:20;19.97;;;17.90;;
13872;SDS011;7006;51.494;11.964;2022-09-13T02:11:49;18.87;;;16.97;;
13872;SDS011;7006;51.494;11.964;2022-09-13T02:14:20;21.07;;;17.00;;
13872;SDS011;7006;51.494;11.964;2022-09-13T02:16:50;18.33;;;16.43;;
13872;SDS011;7006;51.494;11.964;2022-09-13T02:19:19;19.27;;;17.30;;
13872;SDS011;7006;51.494;11.964;2022-09-13T02:21:49;19.03;;;16.57;;
13872;SDS011;7006;51.494;11.964;2022-09-13T02:24:18;18.23;;;16.33;;
13872;SDS011;7006;51.494;11.964;2022-09-13T02:26:48;19.43;;;14.77;;
13872;SDS011;7006;51.494;11.964;2022-09-13T02:29:17;18.83;;;16.07;;
13872;SDS011;7006;51.494;11.964;2022-09-13T02:31:45;17.07;;;15.27;;
13872;SDS011;7006;51.494;11.964;2022-09-13T02:34:16;17.07;;;15.27;;
13872;SDS011;7006;51.494;11.964;2022-09-13T02:36:46;16.23;;;14.53;;
13872;SDS011;7006;51.494;11.964;2022-09-13T02:39:14;16.83;;;15.10;;
13872;SDS011;7006;51.494;11.964;2022-09-13T02:41:43;16.77;;;14.97;;
13872;SDS011;7006;51.494;11.964;2022-09-13T02:44:13;15.10;;;13.60;;
13872;SDS011;7006;51.494;11.964;2022-09-13T02:46:46;16.67;;;14.80;;
13872;SDS011;7006;51.494;11.964;2022-09-13T02:49:23;17.10;;;15.30;;
13872;SDS011;7006;51.494;11.964;2022-09-13T02:51:54;18.57;;;14.43;;
13872;SDS011;7006;51.494;11.964;2022-09-13T02:54:23;17.13;;;15.03;;
13872;SDS011;7006;51.494;11.964;2022-09-13T02:56:53;18.70;;;15.87;;
13872;SDS011;7006;51.494;11.964;2022-09-13T02:59:23;16.20;;;14.50;;
13872;SDS011;7006;51.494;11.964;2022-09-13T03:01:51;15.87;;;14.20;;
13872;SDS011;7006;51.494;11.964;2022-09-13T03:04:20;17.17;;;15.00;;
13872;SDS011;7006;51.494;11.964;2022-09-13T03:06:48;15.80;;;14.20;;
13872;SDS011;7006;51.494;11.964;2022-09-13T03:09:15;16.00;;;14.40;;
13872;SDS011;7006;51.494;11.964;2022-09-13T03:11:50;15.30;;;13.80;;
13872;SDS011;7006;51.494;11.964;2022-09-13T03:14:26;16.63;;;14.83;;
13872;SDS011;7006;51.494;11.964;2022-09-13T03:17:05;16.13;;;14.47;;
13872;SDS011;7006;51.494;11.964;2022-09-13T03:19:39;17.57;;;15.50;;
13872;SDS011;7006;51.494;11.964;2022-09-13T03:22:22;17.60;;;15.73;;
13872;SDS011;7006;51.494;11.964;2022-09-13T03:24:55;17.20;;;15.37;;
13872;SDS011;7006;51.494;11.964;2022-09-13T03:27:27;17.90;;;15.80;;
13872;SDS011;7006;51.494;11.964;2022-09-13T03:30:01;18.23;;;16.30;;
13872;SDS011;7006;51.494;11.964;2022-09-13T03:32:32;19.23;;;17.17;;
13872;SDS011;7006;51.494;11.964;2022-09-13T03:35:03;17.67;;;15.80;;
13872;SDS011;7006;51.494;11.964;2022-09-13T03:37:35;19.10;;;17.10;;
13872;SDS011;7006;51.494;11.964;2022-09-13T03:40:09;19.10;;;17.10;;
13872;SDS011;7006;51.494;11.964;2022-09-13T03:42:40;19.07;;;16.37;;
13872;SDS011;7006;51.494;11.964;2022-09-13T03:45:08;18.13;;;16.23;;
13872;SDS011;7006;51.494;11.964;2022-09-13T03:47:35;17.87;;;15.97;;
13872;SDS011;7006;51.494;11.964;2022-09-13T03:50:03;17.70;;;15.80;;
13872;SDS011;7006;51.494;11.964;2022-09-13T03:52:32;18.23;;;15.70;;
13872;SDS011;7006;51.494;11.964;2022-09-13T03:55:01;17.67;;;15.87;;
13872;SDS011;7006;51.494;11.964;2022-09-13T03:57:27;16.63;;;14.70;;
13872;SDS011;7006;51.494;11.964;2022-09-13T03:59:54;16.60;;;14.90;;
13872;SDS011;7006;51.494;11.964;2022-09-13T04:02:23;19.67;;;17.43;;
13872;SDS011;7006;51.494;11.964;2022-09-13T04:04:50;18.00;;;16.10;;
13872;SDS011;7006;51.494;11.964;2022-09-13T04:07:17;21.70;;;17.30;;
13872;SDS011;7006;51.494;11.964;2022-09-13T04:09:45;18.30;;;16.50;;
13872;SDS011;7006;51.494;11.964;2022-09-13T04:12:13;18.47;;;15.47;;
13872;SDS011;7006;51.494;11.964;2022-09-13T04:14:40;19.17;;;15.40;;
13872;SDS011;7006;51.494;11.964;2022-09-13T04:17:07;16.07;;;14.20;;
13872;SDS011;7006;51.494;11.964;2022-09-13T04:19:33;17.37;;;14.40;;
13872;SDS011;7006;51.494;11.964;2022-09-13T04:22:00;16.67;;;14.90;;
13872;SDS011;7006;51.494;11.964;2022-09-13T04:24:27;16.20;;;14.50;;
13872;SDS011;7006;51.494;11.964;2022-09-13T04:26:55;20.37;;;15.80;;
13872;SDS011;7006;51.494;11.964;2022-09-13T04:29:23;17.50;;;14.30;;
13872;SDS011;7006;51.494;11.964;2022-09-13T04:31:51;20.50;;;15.83;;
13872;SDS011;7006;51.494;11.964;2022-09-13T04:34:19;19.37;;;16.43;;
13872;SDS011;7006;51.494;11.964;2022-09-13T04:36:46;18.33;;;16.37;;
13872;SDS011;7006;51.494;11.964;2022-09-13T04:39:13;17.47;;;15.50;;
13872;SDS011;7006;51.494;11.964;2022-09-13T04:41:39;19.20;;;17.03;;
13872;SDS011;7006;51.494;11.964;2022-09-13T04:44:06;19.20;;;16.90;;
13872;SDS011;7006;51.494;11.964;2022-09-13T04:46:34;17.90;;;16.00;;
13872;SDS011;7006;51.494;11.964;2022-09-13T04:49:01;19.83;;;16.20;;
13872;SDS011;7006;51.494;11.964;2022-09-13T04:51:27;19.63;;;16.37;;
13872;SDS011;7006;51.494;11.964;2022-09-13T04:53:54;20.10;;;16.17;;
13872;SDS011;7006;51.494;11.964;2022-09-13T04:56:21;18.20;;;16.10;;
13872;SDS011;7006;51.494;11.964;2022-09-13T04:58:49;21.07;;;16.97;;
13872;SDS011;7006;51.494;11.964;2022-09-13T05:01:16;24.53;;;16.33;;
13872;SDS011;7006;51.494;11.964;2022-09-13T05:03:44;19.23;;;15.93;;
13872;SDS011;7006;51.494;11.964;2022-09-13T05:06:10;19.47;;;17.00;;
13872;SDS011;7006;51.494;11.964;2022-09-13T05:08:38;18.23;;;15.50;;
13872;SDS011;7006;51.494;11.964;2022-09-13T05:11:05;19.90;;;15.83;;
13872;SDS011;7006;51.494;11.964;2022-09-13T05:13:32;18.87;;;15.27;;
13872;SDS011;7006;51.494;11.964;2022-09-13T05:16:00;22.90;;;15.47;;
13872;SDS011;7006;51.494;11.964;2022-09-13T05:18:29;19.60;;;15.80;;
13872;SDS011;7006;51.494;11.964;2022-09-13T05:20:58;16.63;;;14.33;;
13872;SDS011;7006;51.494;11.964;2022-09-13T05:23:26;19.00;;;14.03;;
13872;SDS011;7006;51.494;11.964;2022-09-13T05:25:53;17.83;;;15.07;;
13872;SDS011;7006;51.494;11.964;2022-09-13T05:28:19;19.33;;;15.20;;
13872;SDS011;7006;51.494;11.964;2022-09-13T05:30:53;17.57;;;15.07;;
13872;SDS011;7006;51.494;11.964;2022-09-13T05:33:20;18.43;;;14.20;;
13872;SDS011;7006;51.494;11.964;2022-09-13T05:35:46;15.20;;;13.10;;
13872;SDS011;7006;51.494;11.964;2022-09-13T05:38:14;15.70;;;14.00;;
13872;SDS011;7006;51.494;11.964;2022-09-13T05:40:41;19.30;;;14.10;;
13872;SDS011;7006;51.494;11.964;2022-09-13T05:43:07;18.30;;;13.90;;
13872;SDS011;7006;51.494;11.964;2022-09-13T05:45:33;15.90;;;11.87;;
13872;SDS011;7006;51.494;11.964;2022-09-13T05:48:00;15.05;;;13.40;;
13872;SDS011;7006;51.494;11.964;2022-09-13T05:50:27;16.93;;;14.10;;
13872;SDS011;7006;51.494;11.964;2022-09-13T05:52:54;14.63;;;13.07;;
13872;SDS011;7006;51.494;11.964;2022-09-13T05:55:22;16.23;;;13.83;;
13872;SDS011;7006;51.494;11.964;2022-09-13T05:57:49;18.03;;;15.00;;
13872;SDS011;7006;51.494;11.964;2022-09-13T06:00:16;17.47;;;14.50;;
13872;SDS011;7006;51.494;11.964;2022-09-13T06:02:42;18.70;;;15.17;;
13872;SDS011;7006;51.494;11.964;2022-09-13T06:05:09;18.30;;;15.63;;
13872;SDS011;7006;51.494;11.964;2022-09-13T06:07:38;23.27;;;16.50;;
13872;SDS011;7006;51.494;11.964;2022-09-13T06:10:05;21.23;;;15.83;;
13872;SDS011;7006;51.494;11.964;2022-09-13T06:12:33;21.63;;;17.20;;
13872;SDS011;7006;51.494;11.964;2022-09-13T06:14:59;22.40;;;17.13;;
13872;SDS011;7006;51.494;11.964;2022-09-13T06:17:26;18.73;;;16.73;;
13872;SDS011;7006;51.494;11.964;2022-09-13T06:19:52;18.17;;;16.20;;
13872;SDS011;7006;51.494;11.964;2022-09-13T06:22:20;17.83;;;14.93;;
13872;SDS011;7006;51.494;11.964;2022-09-13T06:24:47;19.90;;;16.20;;
13872;SDS011;7006;51.494;11.964;2022-09-13T06:27:13;21.10;;;15.73;;
13872;SDS011;7006;51.494;11.964;2022-09-13T06:29:41;21.07;;;14.40;;
13872;SDS011;7006;51.494;11.964;2022-09-13T06:32:08;22.10;;;15.80;;
13872;SDS011;7006;51.494;11.964;2022-09-13T06:34:34;17.30;;;14.33;;
13872;SDS011;7006;51.494;11.964;2022-09-13T06:37:01;18.77;;;14.10;;
13872;SDS011;7006;51.494;11.964;2022-09-13T06:39:28;15.90;;;13.13;;
13872;SDS011;7006;51.494;11.964;2022-09-13T06:41:56;17.57;;;14.60;;
13872;SDS011;7006;51.494;11.964;2022-09-13T06:44:22;17.93;;;14.63;;
13872;SDS011;7006;51.494;11.964;2022-09-13T06:46:50;23.90;;;14.13;;
13872;SDS011;7006;51.494;11.964;2022-09-13T06:49:17;18.50;;;13.50;;
13872;SDS011;7006;51.494;11.964;2022-09-13T06:51:43;16.40;;;13.30;;
13872;SDS011;7006;51.494;11.964;2022-09-13T06:54:10;16.47;;;13.63;;
13872;SDS011;7006;51.494;11.964;2022-09-13T06:56:37;16.43;;;13.30;;
13872;SDS011;7006;51.494;11.964;2022-09-13T06:59:04;16.20;;;13.20;;
13872;SDS011;7006;51.494;11.964;2022-09-13T07:01:32;15.60;;;12.23;;
13872;SDS011;7006;51.494;11.964;2022-09-13T07:04:02;14.43;;;11.70;;
13872;SDS011;7006;51.494;11.964;2022-09-13T07:06:29;14.00;;;11.63;;
13872;SDS011;7006;51.494;11.964;2022-09-13T07:08:58;15.20;;;11.63;;
13872;SDS011;7006;51.494;11.964;2022-09-13T07:11:27;16.83;;;11.53;;
13872;SDS011;7006;51.494;11.964;2022-09-13T07:13:57;14.33;;;11.07;;
13872;SDS011;7006;51.494;11.964;2022-09-13T07:16:25;14.80;;;12.40;;
13872;SDS011;7006;51.494;11.964;2022-09-13T07:18:53;21.70;;;12.90;;
13872;SDS011;7006;51.494;11.964;2022-09-13T07:21:22;17.27;;;13.70;;
13872;SDS011;7006;51.494;11.964;2022-09-13T07:23:49;15.73;;;12.00;;
13872;SDS011;7006;51.494;11.964;2022-09-13T07:26:16;15.47;;;10.90;;
13872;SDS011;7006;51.494;11.964;2022-09-13T07:28:43;14.93;;;11.70;;
13872;SDS011;7006;51.494;11.964;2022-09-13T07:31:12;15.40;;;12.47;;
13872;SDS011;7006;51.494;11.964;2022-09-13T07:33:40;16.13;;;13.03;;
13872;SDS011;7006;51.494;11.964;2022-09-13T07:36:08;16.00;;;12.87;;
13872;SDS011;7006;51.494;11.964;2022-09-13T07:38:38;15.20;;;12.90;;
13872;SDS011;7006;51.494;11.964;2022-09-13T07:41:05;16.20;;;12.33;;
13872;SDS011;7006;51.494;11.964;2022-09-13T07:43:33;14.77;;;12.37;;
13872;SDS011;7006;51.494;11.964;2022-09-13T07:46:00;16.30;;;12.13;;
13872;SDS011;7006;51.494;11.964;2022-09-13T07:48:28;14.60;;;11.70;;
13872;SDS011;7006;51.494;11.964;2022-09-13T07:50:56;14.63;;;12.30;;
13872;SDS011;7006;51.494;11.964;2022-09-13T07:53:24;18.23;;;12.57;;
13872;SDS011;7006;51.494;11.964;2022-09-13T07:55:51;14.57;;;11.57;;
13872;SDS011;7006;51.494;11.964;2022-09-13T07:58:18;16.30;;;12.20;;
13872;SDS011;7006;51.494;11.964;2022-09-13T08:00:45;15.50;;;12.27;;
13872;SDS011;7006;51.494;11.964;2022-09-13T08:03:11;16.30;;;12.03;;
13872;SDS011;7006;51.494;11.964;2022-09-13T08:05:38;14.20;;;11.43;;
13872;SDS011;7006;51.494;11.964;2022-09-13T08:08:04;14.40;;;12.00;;
13872;SDS011;7006;51.494;11.964;2022-09-13T08:10:31;12.37;;;10.40;;
13872;SDS011;7006;51.494;11.964;2022-09-13T08:12:59;13.20;;;11.80;;
13872;SDS011;7006;51.494;11.964;2022-09-13T08:15:26;12.17;;;10.27;;
13872;SDS011;7006;51.494;11.964;2022-09-13T08:17:54;16.80;;;11.77;;
13872;SDS011;7006;51.494;11.964;2022-09-13T08:20:20;12.50;;;10.10;;
13872;SDS011;7006;51.494;11.964;2022-09-13T08:22:47;11.47;;;10.33;;
13872;SDS011;7006;51.494;11.964;2022-09-13T08:25:16;12.63;;;11.00;;
13872;SDS011;7006;51.494;11.964;2022-09-13T08:27:45;11.67;;;10.03;;
13872;SDS011;7006;51.494;11.964;2022-09-13T08:30:13;12.33;;;10.50;;
13872;SDS011;7006;51.494;11.964;2022-09-13T08:32:40;12.20;;;10.63;;
13872;SDS011;7006;51.494;11.964;2022-09-13T08:35:07;13.33;;;11.00;;
13872;SDS011;7006;51.494;11.964;2022-09-13T08:37:36;11.63;;;10.37;;
13872;SDS011;7006;51.494;11.964;2022-09-13T08:40:04;11.53;;;10.33;;
13872;SDS011;7006;51.494;11.964;2022-09-13T08:42:35;11.43;;;10.20;;
13872;SDS011;7006;51.494;11.964;2022-09-13T08:45:09;11.73;;;10.20;;
13872;SDS011;7006;51.494;11.964;2022-09-13T08:47:41;12.03;;;10.00;;
13872;SDS011;7006;51.494;11.964;2022-09-13T08:50:13;13.47;;;10.60;;
13872;SDS011;7006;51.494;11.964;2022-09-13T08:52:47;13.50;;;10.50;;
13872;SDS011;7006;51.494;11.964;2022-09-13T08:55:24;11.83;;;9.67;;
13872;SDS011;7006;51.494;11.964;2022-09-13T08:58:02;11.27;;;10.10;;
13872;SDS011;7006;51.494;11.964;2022-09-13T09:00:36;11.23;;;10.03;;
13872;SDS011;7006;51.494;11.964;2022-09-13T09:03:11;13.07;;;10.43;;
13872;SDS011;7006;51.494;11.964;2022-09-13T09:05:47;10.57;;;9.10;;
13872;SDS011;7006;51.494;11.964;2022-09-13T09:08:26;10.77;;;8.93;;
13872;SDS011;7006;51.494;11.964;2022-09-13T09:10:55;9.97;;;8.93;;
13872;SDS011;7006;51.494;11.964;2022-09-13T09:13:25;11.33;;;9.53;;
13872;SDS011;7006;51.494;11.964;2022-09-13T09:15:57;13.13;;;9.27;;
13872;SDS011;7006;51.494;11.964;2022-09-13T09:18:29;13.13;;;9.57;;
13872;SDS011;7006;51.494;11.964;2022-09-13T09:21:01;9.17;;;8.10;;
13872;SDS011;7006;51.494;11.964;2022-09-13T09:23:29;10.90;;;8.83;;
13872;SDS011;7006;51.494;11.964;2022-09-13T09:26:04;11.17;;;9.33;;
13872;SDS011;7006;51.494;11.964;2022-09-13T09:28:40;8.43;;;7.50;;
13872;SDS011;7006;51.494;11.964;2022-09-13T09:31:09;8.30;;;7.40;;
13872;SDS011;7006;51.494;11.964;2022-09-13T09:33:57;10.73;;;7.63;;
13872;SDS011;7006;51.494;11.964;2022-09-13T09:36:33;11.40;;;7.53;;
13872;SDS011;7006;51.494;11.964;2022-09-13T09:39:04;8.10;;;6.70;;
13872;SDS011;7006;51.494;11.964;2022-09-13T09:41:33;8.50;;;6.50;;
13872;SDS011;7006;51.494;11.964;2022-09-13T09:44:09;7.47;;;5.93;;
13872;SDS011;7006;51.494;11.964;2022-09-13T09:46:42;8.63;;;7.60;;
13872;SDS011;7006;51.494;11.964;2022-09-13T09:49:17;7.73;;;6.57;;
13872;SDS011;7006;51.494;11.964;2022-09-13T09:52:03;6.80;;;5.93;;
13872;SDS011;7006;51.494;11.964;2022-09-13T09:54:34;6.87;;;6.20;;
13872;SDS011;7006;51.494;11.964;2022-09-13T09:57:06;7.13;;;6.30;;
13872;SDS011;7006;51.494;11.964;2022-09-13T09:59:33;7.70;;;6.90;;
13872;SDS011;7006;51.494;11.964;2022-09-13T10:02:10;8.80;;;5.47;;
13872;SDS011;7006;51.494;11.964;2022-09-13T10:04:42;8.20;;;7.10;;
13872;SDS011;7006;51.494;11.964;2022-09-13T10:07:23;6.73;;;5.80;;
13872;SDS011;7006;51.494;11.964;2022-09-13T10:09:53;6.83;;;6.13;;
13872;SDS011;7006;51.494;11.964;2022-09-13T10:12:24;9.70;;;6.50;;
13872;SDS011;7006;51.494;11.964;2022-09-13T10:14:54;8.20;;;6.60;;
13872;SDS011;7006;51.494;11.964;2022-09-13T10:17:34;8.90;;;6.83;;
13872;SDS011;7006;51.494;11.964;2022-09-13T10:20:17;6.20;;;5.53;;
13872;SDS011;7006;51.494;11.964;2022-09-13T10:23:08;8.63;;;5.33;;
13872;SDS011;7006;51.494;11.964;2022-09-13T10:25:38;7.13;;;5.80;;
13872;SDS011;7006;51.494;11.964;2022-09-13T10:28:05;6.40;;;5.70;;
13872;SDS011;7006;51.494;11.964;2022-09-13T10:30:34;6.43;;;5.83;;
13872;SDS011;7006;51.494;11.964;2022-09-13T10:33:05;7.20;;;5.70;;
13872;SDS011;7006;51.494;11.964;2022-09-13T10:35:37;8.00;;;6.20;;
13872;SDS011;7006;51.494;11.964;2022-09-13T10:38:03;6.10;;;5.17;;
13872;SDS011;7006;51.494;11.964;2022-09-13T10:40:33;5.60;;;4.70;;
13872;SDS011;7006;51.494;11.964;2022-09-13T10:43:03;6.00;;;5.30;;
13872;SDS011;7006;51.494;11.964;2022-09-13T10:45:44;6.77;;;5.60;;
13872;SDS011;7006;51.494;11.964;2022-09-13T10:51:13;7.70;;;5.87;;
13872;SDS011;7006;51.494;11.964;2022-09-13T10:53:49;6.80;;;4.70;;
13872;SDS011;7006;51.494;11.964;2022-09-13T10:56:22;9.53;;;5.37;;
13872;SDS011;7006;51.494;11.964;2022-09-13T10:58:51;7.03;;;5.20;;
13872;SDS011;7006;51.494;11.964;2022-09-13T11:02:07;6.43;;;5.73;;
13872;SDS011;7006;51.494;11.964;2022-09-13T11:05:00;6.00;;;4.97;;
13872;SDS011;7006;51.494;11.964;2022-09-13T11:07:39;5.30;;;4.70;;
13872;SDS011;7006;51.494;11.964;2022-09-13T11:10:17;5.20;;;4.70;;
13872;SDS011;7006;51.494;11.964;2022-09-13T11:12:49;6.07;;;4.67;;
13872;SDS011;7006;51.494;11.964;2022-09-13T11:15:26;5.93;;;4.27;;
13872;SDS011;7006;51.494;11.964;2022-09-13T11:18:05;5.80;;;4.20;;
13872;SDS011;7006;51.494;11.964;2022-09-13T11:20:44;6.80;;;4.73;;
13872;SDS011;7006;51.494;11.964;2022-09-13T11:23:27;9.03;;;4.43;;
13872;SDS011;7006;51.494;11.964;2022-09-13T11:26:07;4.80;;;4.23;;
13872;SDS011;7006;51.494;11.964;2022-09-13T11:28:51;6.73;;;4.60;;
13872;SDS011;7006;51.494;11.964;2022-09-13T11:31:28;5.70;;;4.80;;
13872;SDS011;7006;51.494;11.964;2022-09-13T11:34:05;7.93;;;5.27;;
13872;SDS011;7006;51.494;11.964;2022-09-13T11:36:45;7.40;;;4.60;;
13872;SDS011;7006;51.494;11.964;2022-09-13T11:39:30;8.00;;;4.57;;
13872;SDS011;7006;51.494;11.964;2022-09-13T11:42:01;7.23;;;4.10;;
13872;SDS011;7006;51.494;11.964;2022-09-13T11:47:42;5.30;;;3.73;;
13872;SDS011;7006;51.494;11.964;2022-09-13T11:50:39;5.63;;;4.60;;
13872;SDS011;7006;51.494;11.964;2022-09-13T11:53:18;5.73;;;4.70;;
13872;SDS011;7006;51.494;11.964;2022-09-13T11:56:09;6.00;;;4.70;;
13872;SDS011;7006;51.494;11.964;2022-09-13T11:58:41;10.20;;;8.60;;
13872;SDS011;7006;51.494;11.964;2022-09-13T12:01:18;5.90;;;4.80;;
13872;SDS011;7006;51.494;11.964;2022-09-13T12:03:48;7.60;;;4.30;;
13872;SDS011;7006;51.494;11.964;2022-09-13T12:06:20;6.50;;;4.43;;
13872;SDS011;7006;51.494;11.964;2022-09-13T12:08:50;5.50;;;4.70;;
13872;SDS011;7006;51.494;11.964;2022-09-13T12:11:23;5.87;;;4.73;;
13872;SDS011;7006;51.494;11.964;2022-09-13T12:13:53;8.20;;;5.20;;
13872;SDS011;7006;51.494;11.964;2022-09-13T12:16:25;8.93;;;4.90;;
13872;SDS011;7006;51.494;11.964;2022-09-13T12:18:54;6.17;;;4.97;;
13872;SDS011;7006;51.494;11.964;2022-09-13T12:21:24;7.30;;;6.00;;
13872;SDS011;7006;51.494;11.964;2022-09-13T12:23:55;7.67;;;5.03;;
13872;SDS011;7006;51.494;11.964;2022-09-13T12:26:32;5.27;;;4.53;;
13872;SDS011;7006;51.494;11.964;2022-09-13T12:29:02;6.30;;;5.17;;
13872;SDS011;7006;51.494;11.964;2022-09-13T12:31:33;6.70;;;5.07;;
13872;SDS011;7006;51.494;11.964;2022-09-13T12:33:59;8.43;;;5.10;;
13872;SDS011;7006;51.494;11.964;2022-09-13T12:42:30;5.67;;;4.67;;
13872;SDS011;7006;51.494;11.964;2022-09-13T12:48:23;8.53;;;5.27;;
13872;SDS011;7006;51.494;11.964;2022-09-13T12:51:01;6.03;;;4.83;;
13872;SDS011;7006;51.494;11.964;2022-09-13T12:53:37;6.33;;;5.30;;
13872;SDS011;7006;51.494;11.964;2022-09-13T12:59:22;9.97;;;4.70;;
13872;SDS011;7006;51.494;11.964;2022-09-13T13:02:00;6.93;;;4.90;;
13872;SDS011;7006;51.494;11.964;2022-09-13T13:04:29;7.83;;;4.30;;
13872;SDS011;7006;51.494;11.964;2022-09-13T13:06:58;5.70;;;5.10;;
13872;SDS011;7006;51.494;11.964;2022-09-13T13:09:30;6.27;;;4.80;;
13872;SDS011;7006;51.494;11.964;2022-09-13T13:12:07;5.83;;;4.63;;
13872;SDS011;7006;51.494;11.964;2022-09-13T13:17:37;7.63;;;5.27;;
13872;SDS011;7006;51.494;11.964;2022-09-13T13:23:14;8.47;;;4.77;;
13872;SDS011;7006;51.494;11.964;2022-09-13T13:26:05;5.40;;;4.60;;
13872;SDS011;7006;51.494;11.964;2022-09-13T13:31:42;6.03;;;4.90;;
13872;SDS011;7006;51.494;11.964;2022-09-13T13:37:27;5.07;;;4.40;;
13872;SDS011;7006;51.494;11.964;2022-09-13T13:40:09;5.33;;;4.37;;
13872;SDS011;7006;51.494;11.964;2022-09-13T13:42:49;5.50;;;5.00;;
13872;SDS011;7006;51.494;11.964;2022-09-13T13:45:20;5.03;;;4.30;;
13872;SDS011;7006;51.494;11.964;2022-09-13T13:47:54;6.80;;;4.40;;
13872;SDS011;7006;51.494;11.964;2022-09-13T13:53:47;5.50;;;4.30;;
13872;SDS011;7006;51.494;11.964;2022-09-13T13:56:25;5.57;;;5.07;;
13872;SDS011;7006;51.494;11.964;2022-09-13T13:58:59;4.80;;;4.37;;
13872;SDS011;7006;51.494;11.964;2022-09-13T14:01:34;9.37;;;4.33;;
13872;SDS011;7006;51.494;11.964;2022-09-13T14:07:18;8.33;;;4.60;;
13872;SDS011;7006;51.494;11.964;2022-09-13T14:09:57;5.50;;;4.50;;
13872;SDS011;7006;51.494;11.964;2022-09-13T14:12:35;5.37;;;4.53;;
13872;SDS011;7006;51.494;11.964;2022-09-13T14:15:19;4.77;;;4.20;;
13872;SDS011;7006;51.494;11.964;2022-09-13T14:18:10;4.83;;;4.10;;
13872;SDS011;7006;51.494;11.964;2022-09-13T14:20:59;12.17;;;5.60;;
13872;SDS011;7006;51.494;11.964;2022-09-13T14:23:31;8.50;;;6.10;;
13872;SDS011;7006;51.494;11.964;2022-09-13T14:26:02;7.73;;;6.30;;
13872;SDS011;7006;51.494;11.964;2022-09-13T14:28:33;11.60;;;5.90;;
13872;SDS011;7006;51.494;11.964;2022-09-13T14:31:00;9.40;;;6.53;;
13872;SDS011;7006;51.494;11.964;2022-09-13T14:33:28;7.90;;;7.10;;
13872;SDS011;7006;51.494;11.964;2022-09-13T14:36:02;9.70;;;6.43;;
13872;SDS011;7006;51.494;11.964;2022-09-13T14:38:31;11.60;;;6.50;;
13872;SDS011;7006;51.494;11.964;2022-09-13T14:41:20;9.80;;;7.17;;
13872;SDS011;7006;51.494;11.964;2022-09-13T14:43:50;11.47;;;5.50;;
13872;SDS011;7006;51.494;11.964;2022-09-13T14:46:19;8.47;;;6.93;;
13872;SDS011;7006;51.494;11.964;2022-09-13T14:48:49;8.70;;;6.50;;
13872;SDS011;7006;51.494;11.964;2022-09-13T14:51:19;8.23;;;6.13;;
13872;SDS011;7006;51.494;11.964;2022-09-13T14:53:53;7.33;;;5.97;;
13872;SDS011;7006;51.494;11.964;2022-09-13T14:56:26;7.90;;;6.83;;
13872;SDS011;7006;51.494;11.964;2022-09-13T14:58:55;8.33;;;6.83;;
13872;SDS011;7006;51.494;11.964;2022-09-13T15:01:45;8.33;;;7.10;;
13872;SDS011;7006;51.494;11.964;2022-09-13T15:04:11;8.03;;;6.90;;
13872;SDS011;7006;51.494;11.964;2022-09-13T15:06:42;8.90;;;6.90;;
13872;SDS011;7006;51.494;11.964;2022-09-13T15:09:25;11.03;;;7.40;;
13872;SDS011;7006;51.494;11.964;2022-09-13T15:11:56;7.93;;;7.10;;
13872;SDS011;7006;51.494;11.964;2022-09-13T15:14:25;8.03;;;6.30;;
13872;SDS011;7006;51.494;11.964;2022-09-13T15:16:53;8.87;;;7.63;;
13872;SDS011;7006;51.494;11.964;2022-09-13T15:19:29;9.90;;;7.57;;
13872;SDS011;7006;51.494;11.964;2022-09-13T15:22:13;10.20;;;7.30;;
13872;SDS011;7006;51.494;11.964;2022-09-13T15:24:47;8.03;;;6.47;;
13872;SDS011;7006;51.494;11.964;2022-09-13T15:27:19;12.80;;;7.60;;
13872;SDS011;7006;51.494;11.964;2022-09-13T15:29:50;7.70;;;6.80;;
13872;SDS011;7006;51.494;11.964;2022-09-13T15:32:21;11.53;;;7.20;;
13872;SDS011;7006;51.494;11.964;2022-09-13T15:35:14;8.63;;;7.20;;
13872;SDS011;7006;51.494;11.964;2022-09-13T15:37:42;8.53;;;7.63;;
13872;SDS011;7006;51.494;11.964;2022-09-13T15:40:15;12.47;;;8.37;;